<?xml version="1.0" encoding="UTF-8" standalone="no" ?>
<gpx xmlns="http://www.topografix.com/GPX/1/1" xmlns:xsi="http://www.w3.org/2001/XMLSchema-instance" xsi:schemaLocation="http://www.topografix.com/GPX/1/1 http://www.topografix.com/GPX/1/1/gpx.xsd" version="1.1" creator="VisuGPX - https://www.visugpx.com">
  <metadata>
    <name>Circuit Auribeau/Siagne - Tanneron</name>
    <desc><![CDATA[Circuit sans prétention sur pistes et sentiers faciles.]]></desc>
  </metadata>
  <trk>
    <name><![CDATA[Tracé 002]]></name>
    <trkseg>
      <trkpt lat="43.604" lon="6.90949">
        <ele>41.9547119</ele>
        <time>2011-01-05T12:58:04Z</time>
      </trkpt>
      <trkpt lat="43.60464" lon="6.90714">
        <ele>41.473999</ele>
        <time>2011-01-05T12:58:46Z</time>
      </trkpt>
      <trkpt lat="43.6062" lon="6.90375">
        <ele>24.651001</ele>
        <time>2011-01-05T12:59:26Z</time>
      </trkpt>
      <trkpt lat="43.60535" lon="6.90207">
        <ele>24.1702881</ele>
        <time>2011-01-05T12:59:50Z</time>
      </trkpt>
      <trkpt lat="43.6049" lon="6.9019">
        <ele>23.2089844</ele>
        <time>2011-01-05T12:59:58Z</time>
      </trkpt>
      <trkpt lat="43.60345" lon="6.9025">
        <ele>22.7282715</ele>
        <time>2011-01-05T13:00:25Z</time>
      </trkpt>
      <trkpt lat="43.60299" lon="6.902">
        <ele>22.7282715</ele>
        <time>2011-01-05T13:00:37Z</time>
      </trkpt>
      <trkpt lat="43.60299" lon="6.90158">
        <ele>24.651001</ele>
        <time>2011-01-05T13:00:45Z</time>
      </trkpt>
      <trkpt lat="43.60376" lon="6.90084">
        <ele>34.744873</ele>
        <time>2011-01-05T13:01:23Z</time>
      </trkpt>
      <trkpt lat="43.60354" lon="6.90053">
        <ele>39.5512695</ele>
        <time>2011-01-05T13:01:41Z</time>
      </trkpt>
      <trkpt lat="43.60456" lon="6.89845">
        <ele>53.9711914</ele>
        <time>2011-01-05T13:03:01Z</time>
      </trkpt>
      <trkpt lat="43.60416" lon="6.89735">
        <ele>62.142334</ele>
        <time>2011-01-05T13:03:43Z</time>
      </trkpt>
      <trkpt lat="43.60505" lon="6.89741">
        <ele>69.3522949</ele>
        <time>2011-01-05T13:04:27Z</time>
      </trkpt>
      <trkpt lat="43.60585" lon="6.897">
        <ele>77.0428467</ele>
        <time>2011-01-05T13:05:08Z</time>
      </trkpt>
      <trkpt lat="43.60607" lon="6.89656">
        <ele>79.9266357</ele>
        <time>2011-01-05T13:05:25Z</time>
      </trkpt>
      <trkpt lat="43.60647" lon="6.89576">
        <ele>85.2139893</ele>
        <time>2011-01-05T13:05:57Z</time>
      </trkpt>
      <trkpt lat="43.60684" lon="6.89569">
        <ele>87.1365967</ele>
        <time>2011-01-05T13:06:12Z</time>
      </trkpt>
      <trkpt lat="43.60732" lon="6.8955">
        <ele>84.2526855</ele>
        <time>2011-01-05T13:07:43Z</time>
      </trkpt>
      <trkpt lat="43.60763" lon="6.89478">
        <ele>80.4074707</ele>
        <time>2011-01-05T13:07:54Z</time>
      </trkpt>
      <trkpt lat="43.6068" lon="6.89321">
        <ele>80.8881836</ele>
        <time>2011-01-05T13:08:22Z</time>
      </trkpt>
      <trkpt lat="43.60682" lon="6.89277">
        <ele>80.8881836</ele>
        <time>2011-01-05T13:08:32Z</time>
      </trkpt>
      <trkpt lat="43.60629" lon="6.89234">
        <ele>76.5621338</ele>
        <time>2011-01-05T13:08:45Z</time>
      </trkpt>
      <trkpt lat="43.60694" lon="6.89186">
        <ele>76.0814209</ele>
        <time>2011-01-05T13:09:13Z</time>
      </trkpt>
      <trkpt lat="43.60672" lon="6.89041">
        <ele>78.4847412</ele>
        <time>2011-01-05T13:09:49Z</time>
      </trkpt>
      <trkpt lat="43.60648" lon="6.88983">
        <ele>76.5621338</ele>
        <time>2011-01-05T13:10:03Z</time>
      </trkpt>
      <trkpt lat="43.60605" lon="6.88952">
        <ele>73.6782227</ele>
        <time>2011-01-05T13:10:23Z</time>
      </trkpt>
      <trkpt lat="43.60707" lon="6.88899">
        <ele>76.5621338</ele>
        <time>2011-01-05T13:11:22Z</time>
      </trkpt>
      <trkpt lat="43.60711" lon="6.88885">
        <ele>76.0814209</ele>
        <time>2011-01-05T13:11:30Z</time>
      </trkpt>
      <trkpt lat="43.60647" lon="6.8879">
        <ele>70.7941895</ele>
        <time>2011-01-05T13:11:56Z</time>
      </trkpt>
      <trkpt lat="43.60585" lon="6.88562">
        <ele>60.7003174</ele>
        <time>2011-01-05T13:12:47Z</time>
      </trkpt>
      <trkpt lat="43.60498" lon="6.8858">
        <ele>65.5070801</ele>
        <time>2011-01-05T13:14:06Z</time>
      </trkpt>
      <trkpt lat="43.60474" lon="6.88634">
        <ele>70.7941895</ele>
        <time>2011-01-05T13:15:13Z</time>
      </trkpt>
      <trkpt lat="43.60425" lon="6.88677">
        <ele>74.1588135</ele>
        <time>2011-01-05T13:16:00Z</time>
      </trkpt>
      <trkpt lat="43.60372" lon="6.88632">
        <ele>75.1202393</ele>
        <time>2011-01-05T13:16:37Z</time>
      </trkpt>
      <trkpt lat="43.60328" lon="6.88698">
        <ele>75.6008301</ele>
        <time>2011-01-05T13:17:07Z</time>
      </trkpt>
      <trkpt lat="43.60261" lon="6.88583">
        <ele>79.4460449</ele>
        <time>2011-01-05T13:18:23Z</time>
      </trkpt>
      <trkpt lat="43.60087" lon="6.88582">
        <ele>87.6171875</ele>
        <time>2011-01-05T13:20:07Z</time>
      </trkpt>
      <trkpt lat="43.6016" lon="6.88516">
        <ele>97.7111816</ele>
        <time>2011-01-05T13:21:32Z</time>
      </trkpt>
      <trkpt lat="43.60113" lon="6.88418">
        <ele>105.4017334</ele>
        <time>2011-01-05T13:22:35Z</time>
      </trkpt>
      <trkpt lat="43.60096" lon="6.884">
        <ele>106.3630371</ele>
        <time>2011-01-05T13:22:54Z</time>
      </trkpt>
      <trkpt lat="43.6021" lon="6.88432">
        <ele>116.4567871</ele>
        <time>2011-01-05T13:24:18Z</time>
      </trkpt>
      <trkpt lat="43.60352" lon="6.88459">
        <ele>127.9925537</ele>
        <time>2011-01-05T13:26:31Z</time>
      </trkpt>
      <trkpt lat="43.60378" lon="6.8843">
        <ele>131.3572998</ele>
        <time>2011-01-05T13:26:55Z</time>
      </trkpt>
      <trkpt lat="43.60346" lon="6.88312">
        <ele>139.0478516</ele>
        <time>2011-01-05T13:27:49Z</time>
      </trkpt>
      <trkpt lat="43.60357" lon="6.88247">
        <ele>141.9317627</ele>
        <time>2011-01-05T13:28:15Z</time>
      </trkpt>
      <trkpt lat="43.60267" lon="6.88196">
        <ele>150.5836182</ele>
        <time>2011-01-05T13:29:39Z</time>
      </trkpt>
      <trkpt lat="43.60215" lon="6.88156">
        <ele>154.9095459</ele>
        <time>2011-01-05T13:30:12Z</time>
      </trkpt>
      <trkpt lat="43.60204" lon="6.88128">
        <ele>155.8709717</ele>
        <time>2011-01-05T13:30:25Z</time>
      </trkpt>
      <trkpt lat="43.60229" lon="6.88102">
        <ele>157.3128662</ele>
        <time>2011-01-05T13:30:39Z</time>
      </trkpt>
      <trkpt lat="43.6025" lon="6.88066">
        <ele>157.3128662</ele>
        <time>2011-01-05T13:30:51Z</time>
      </trkpt>
      <trkpt lat="43.60207" lon="6.87981">
        <ele>161.1582031</ele>
        <time>2011-01-05T13:31:21Z</time>
      </trkpt>
      <trkpt lat="43.60034" lon="6.87879">
        <ele>177.0200195</ele>
        <time>2011-01-05T13:33:08Z</time>
      </trkpt>
      <trkpt lat="43.60029" lon="6.87873">
        <ele>177.5006104</ele>
        <time>2011-01-05T13:33:12Z</time>
      </trkpt>
      <trkpt lat="43.60107" lon="6.87733">
        <ele>187.5943604</ele>
        <time>2011-01-05T13:34:29Z</time>
      </trkpt>
      <trkpt lat="43.60001" lon="6.87672">
        <ele>196.7269287</ele>
        <time>2011-01-05T13:35:34Z</time>
      </trkpt>
      <trkpt lat="43.59999" lon="6.87668">
        <ele>196.7269287</ele>
        <time>2011-01-05T13:35:37Z</time>
      </trkpt>
      <trkpt lat="43.60137" lon="6.87587">
        <ele>208.7434082</ele>
        <time>2011-01-05T13:36:52Z</time>
      </trkpt>
      <trkpt lat="43.60139" lon="6.87574">
        <ele>209.704834</ele>
        <time>2011-01-05T13:36:58Z</time>
      </trkpt>
      <trkpt lat="43.60096" lon="6.87495">
        <ele>208.2628174</ele>
        <time>2011-01-05T13:37:26Z</time>
      </trkpt>
      <trkpt lat="43.60085" lon="6.87403">
        <ele>205.3787842</ele>
        <time>2011-01-05T13:37:41Z</time>
      </trkpt>
      <trkpt lat="43.60035" lon="6.87234">
        <ele>197.2075195</ele>
        <time>2011-01-05T13:38:09Z</time>
      </trkpt>
      <trkpt lat="43.59942" lon="6.87191">
        <ele>191.4395752</ele>
        <time>2011-01-05T13:38:30Z</time>
      </trkpt>
      <trkpt lat="43.59908" lon="6.8722">
        <ele>188.0750732</ele>
        <time>2011-01-05T13:38:39Z</time>
      </trkpt>
      <trkpt lat="43.59903" lon="6.87267">
        <ele>187.1137695</ele>
        <time>2011-01-05T13:38:46Z</time>
      </trkpt>
      <trkpt lat="43.59863" lon="6.87275">
        <ele>185.6717529</ele>
        <time>2011-01-05T13:38:58Z</time>
      </trkpt>
      <trkpt lat="43.59831" lon="6.87289">
        <ele>183.2684326</ele>
        <time>2011-01-05T13:39:08Z</time>
      </trkpt>
      <trkpt lat="43.59819" lon="6.87103">
        <ele>192.8817139</ele>
        <time>2011-01-05T13:40:12Z</time>
      </trkpt>
      <trkpt lat="43.59713" lon="6.86981">
        <ele>196.7269287</ele>
        <time>2011-01-05T13:41:02Z</time>
      </trkpt>
      <trkpt lat="43.59708" lon="6.86978">
        <ele>196.2463379</ele>
        <time>2011-01-05T13:41:08Z</time>
      </trkpt>
      <trkpt lat="43.59924" lon="6.86977">
        <ele>197.2075195</ele>
        <time>2011-01-05T13:42:39Z</time>
      </trkpt>
      <trkpt lat="43.6" lon="6.86845">
        <ele>204.4174805</ele>
        <time>2011-01-05T13:43:43Z</time>
      </trkpt>
      <trkpt lat="43.59886" lon="6.86942">
        <ele>220.7598877</ele>
        <time>2011-01-05T13:44:59Z</time>
      </trkpt>
      <trkpt lat="43.59704" lon="6.86857">
        <ele>241.9089355</ele>
        <time>2011-01-05T13:46:44Z</time>
      </trkpt>
      <trkpt lat="43.59547" lon="6.86686">
        <ele>263.0578613</ele>
        <time>2011-01-05T13:50:29Z</time>
      </trkpt>
      <trkpt lat="43.59506" lon="6.86766">
        <ele>273.1518555</ele>
        <time>2011-01-05T13:51:09Z</time>
      </trkpt>
      <trkpt lat="43.59457" lon="6.86785">
        <ele>280.8424072</ele>
        <time>2011-01-05T13:51:36Z</time>
      </trkpt>
      <trkpt lat="43.59489" lon="6.86736">
        <ele>288.0522461</ele>
        <time>2011-01-05T13:52:06Z</time>
      </trkpt>
      <trkpt lat="43.59481" lon="6.86645">
        <ele>292.8587646</ele>
        <time>2011-01-05T13:52:42Z</time>
      </trkpt>
      <trkpt lat="43.59425" lon="6.86588">
        <ele>297.6654053</ele>
        <time>2011-01-05T13:53:15Z</time>
      </trkpt>
      <trkpt lat="43.59343" lon="6.86569">
        <ele>303.9139404</ele>
        <time>2011-01-05T13:53:53Z</time>
      </trkpt>
      <trkpt lat="43.59298" lon="6.86567">
        <ele>305.355957</ele>
        <time>2011-01-05T13:54:11Z</time>
      </trkpt>
      <trkpt lat="43.59216" lon="6.86336">
        <ele>308.720459</ele>
        <time>2011-01-05T13:55:11Z</time>
      </trkpt>
      <trkpt lat="43.59257" lon="6.8656">
        <ele>320.2563477</ele>
        <time>2011-01-05T13:56:42Z</time>
      </trkpt>
      <trkpt lat="43.59281" lon="6.86608">
        <ele>323.1403809</ele>
        <time>2011-01-05T13:56:57Z</time>
      </trkpt>
      <trkpt lat="43.59368" lon="6.86662">
        <ele>328.9083252</ele>
        <time>2011-01-05T13:57:29Z</time>
      </trkpt>
      <trkpt lat="43.59392" lon="6.86712">
        <ele>330.3502197</ele>
        <time>2011-01-05T13:57:44Z</time>
      </trkpt>
      <trkpt lat="43.59349" lon="6.86852">
        <ele>338.5214844</ele>
        <time>2011-01-05T13:58:30Z</time>
      </trkpt>
      <trkpt lat="43.59367" lon="6.87013">
        <ele>343.8085938</ele>
        <time>2011-01-05T13:59:16Z</time>
      </trkpt>
      <trkpt lat="43.59298" lon="6.87079">
        <ele>349.0958252</ele>
        <time>2011-01-05T13:59:47Z</time>
      </trkpt>
      <trkpt lat="43.59275" lon="6.87217">
        <ele>353.421875</ele>
        <time>2011-01-05T14:00:22Z</time>
      </trkpt>
      <trkpt lat="43.59184" lon="6.87268">
        <ele>358.7089844</ele>
        <time>2011-01-05T14:01:00Z</time>
      </trkpt>
      <trkpt lat="43.59134" lon="6.87361">
        <ele>363.0350342</ele>
        <time>2011-01-05T14:01:33Z</time>
      </trkpt>
      <trkpt lat="43.59107" lon="6.87499">
        <ele>367.3609619</ele>
        <time>2011-01-05T14:02:10Z</time>
      </trkpt>
      <trkpt lat="43.59032" lon="6.87593">
        <ele>372.1674805</ele>
        <time>2011-01-05T14:02:47Z</time>
      </trkpt>
      <trkpt lat="43.58974" lon="6.87633">
        <ele>375.0515137</ele>
        <time>2011-01-05T14:04:24Z</time>
      </trkpt>
      <trkpt lat="43.58824" lon="6.87837">
        <ele>381.3000488</ele>
        <time>2011-01-05T14:06:18Z</time>
      </trkpt>
      <trkpt lat="43.58717" lon="6.87856">
        <ele>387.0679932</ele>
        <time>2011-01-05T14:06:52Z</time>
      </trkpt>
      <trkpt lat="43.58617" lon="6.87949">
        <ele>392.3553467</ele>
        <time>2011-01-05T14:07:30Z</time>
      </trkpt>
      <trkpt lat="43.58515" lon="6.87984">
        <ele>394.7585449</ele>
        <time>2011-01-05T14:08:00Z</time>
      </trkpt>
      <trkpt lat="43.58443" lon="6.8798">
        <ele>393.3165283</ele>
        <time>2011-01-05T14:09:17Z</time>
      </trkpt>
      <trkpt lat="43.58426" lon="6.88017">
        <ele>385.6259766</ele>
        <time>2011-01-05T14:09:46Z</time>
      </trkpt>
      <trkpt lat="43.5831" lon="6.88036">
        <ele>366.880249</ele>
        <time>2011-01-05T14:10:25Z</time>
      </trkpt>
      <trkpt lat="43.58282" lon="6.88001">
        <ele>361.1124268</ele>
        <time>2011-01-05T14:10:42Z</time>
      </trkpt>
      <trkpt lat="43.58262" lon="6.88076">
        <ele>353.9025879</ele>
        <time>2011-01-05T14:11:00Z</time>
      </trkpt>
      <trkpt lat="43.58229" lon="6.88102">
        <ele>352.4605713</ele>
        <time>2011-01-05T14:11:09Z</time>
      </trkpt>
      <trkpt lat="43.58091" lon="6.88088">
        <ele>344.7700195</ele>
        <time>2011-01-05T14:11:41Z</time>
      </trkpt>
      <trkpt lat="43.58055" lon="6.88013">
        <ele>336.1181641</ele>
        <time>2011-01-05T14:12:01Z</time>
      </trkpt>
      <trkpt lat="43.58002" lon="6.87966">
        <ele>326.9855957</ele>
        <time>2011-01-05T14:12:19Z</time>
      </trkpt>
      <trkpt lat="43.57901" lon="6.87987">
        <ele>322.1789551</ele>
        <time>2011-01-05T14:12:48Z</time>
      </trkpt>
      <trkpt lat="43.57906" lon="6.88073">
        <ele>322.659668</ele>
        <time>2011-01-05T14:13:13Z</time>
      </trkpt>
      <trkpt lat="43.57995" lon="6.88182">
        <ele>323.1403809</ele>
        <time>2011-01-05T14:13:51Z</time>
      </trkpt>
      <trkpt lat="43.58087" lon="6.88268">
        <ele>307.2785645</ele>
        <time>2011-01-05T14:14:36Z</time>
      </trkpt>
      <trkpt lat="43.58094" lon="6.88296">
        <ele>302.4719238</ele>
        <time>2011-01-05T14:14:56Z</time>
      </trkpt>
      <trkpt lat="43.58211" lon="6.88275">
        <ele>296.7041016</ele>
        <time>2011-01-05T14:15:38Z</time>
      </trkpt>
      <trkpt lat="43.58223" lon="6.88334">
        <ele>294.3007813</ele>
        <time>2011-01-05T14:15:59Z</time>
      </trkpt>
      <trkpt lat="43.58181" lon="6.88429">
        <ele>283.2456055</ele>
        <time>2011-01-05T14:16:43Z</time>
      </trkpt>
      <trkpt lat="43.58133" lon="6.88495">
        <ele>272.1904297</ele>
        <time>2011-01-05T14:17:04Z</time>
      </trkpt>
      <trkpt lat="43.58137" lon="6.88528">
        <ele>269.7871094</ele>
        <time>2011-01-05T14:17:14Z</time>
      </trkpt>
      <trkpt lat="43.5824" lon="6.88517">
        <ele>276.5163574</ele>
        <time>2011-01-05T14:17:51Z</time>
      </trkpt>
      <trkpt lat="43.58372" lon="6.886">
        <ele>284.2069092</ele>
        <time>2011-01-05T14:18:36Z</time>
      </trkpt>
      <trkpt lat="43.58442" lon="6.886">
        <ele>286.6102295</ele>
        <time>2011-01-05T14:19:00Z</time>
      </trkpt>
      <trkpt lat="43.58455" lon="6.88687">
        <ele>288.532959</ele>
        <time>2011-01-05T14:19:21Z</time>
      </trkpt>
      <trkpt lat="43.58821" lon="6.88521">
        <ele>263.0578613</ele>
        <time>2011-01-05T14:21:06Z</time>
      </trkpt>
      <trkpt lat="43.58837" lon="6.88455">
        <ele>258.2513428</ele>
        <time>2011-01-05T14:21:14Z</time>
      </trkpt>
      <trkpt lat="43.58867" lon="6.88434">
        <ele>256.8093262</ele>
        <time>2011-01-05T14:21:20Z</time>
      </trkpt>
      <trkpt lat="43.59004" lon="6.88442">
        <ele>251.0413818</ele>
        <time>2011-01-05T14:22:01Z</time>
      </trkpt>
      <trkpt lat="43.59033" lon="6.88611">
        <ele>250.0802002</ele>
        <time>2011-01-05T14:25:07Z</time>
      </trkpt>
      <trkpt lat="43.59025" lon="6.88675">
        <ele>248.1575928</ele>
        <time>2011-01-05T14:25:22Z</time>
      </trkpt>
      <trkpt lat="43.59118" lon="6.88867">
        <ele>249.1187744</ele>
        <time>2011-01-05T14:27:20Z</time>
      </trkpt>
      <trkpt lat="43.59135" lon="6.88931">
        <ele>239.9862061</ele>
        <time>2011-01-05T14:27:35Z</time>
      </trkpt>
      <trkpt lat="43.5924" lon="6.89017">
        <ele>221.2406006</ele>
        <time>2011-01-05T14:28:16Z</time>
      </trkpt>
      <trkpt lat="43.59242" lon="6.89023">
        <ele>217.3953857</ele>
        <time>2011-01-05T14:30:24Z</time>
      </trkpt>
      <trkpt lat="43.59226" lon="6.89013">
        <ele>217.3953857</ele>
        <time>2011-01-05T14:43:31Z</time>
      </trkpt>
      <trkpt lat="43.59185" lon="6.8902">
        <ele>213.0693359</ele>
        <time>2011-01-05T14:43:44Z</time>
      </trkpt>
      <trkpt lat="43.59167" lon="6.89008">
        <ele>210.6660156</ele>
        <time>2011-01-05T14:43:48Z</time>
      </trkpt>
      <trkpt lat="43.59147" lon="6.89067">
        <ele>205.8594971</ele>
        <time>2011-01-05T14:44:09Z</time>
      </trkpt>
      <trkpt lat="43.59103" lon="6.8902">
        <ele>202.494873</ele>
        <time>2011-01-05T14:44:26Z</time>
      </trkpt>
      <trkpt lat="43.59059" lon="6.89039">
        <ele>196.7269287</ele>
        <time>2011-01-05T14:44:41Z</time>
      </trkpt>
      <trkpt lat="43.59016" lon="6.88982">
        <ele>191.4395752</ele>
        <time>2011-01-05T14:44:58Z</time>
      </trkpt>
      <trkpt lat="43.58982" lon="6.88979">
        <ele>184.2298584</ele>
        <time>2011-01-05T14:45:08Z</time>
      </trkpt>
      <trkpt lat="43.58956" lon="6.88933">
        <ele>179.4232178</ele>
        <time>2011-01-05T14:45:21Z</time>
      </trkpt>
      <trkpt lat="43.5897" lon="6.89005">
        <ele>170.7713623</ele>
        <time>2011-01-05T14:45:42Z</time>
      </trkpt>
      <trkpt lat="43.58937" lon="6.88976">
        <ele>162.6000977</ele>
        <time>2011-01-05T14:46:06Z</time>
      </trkpt>
      <trkpt lat="43.5896" lon="6.89076">
        <ele>153.4676514</ele>
        <time>2011-01-05T14:46:35Z</time>
      </trkpt>
      <trkpt lat="43.58993" lon="6.89112">
        <ele>149.1416016</ele>
        <time>2011-01-05T14:47:11Z</time>
      </trkpt>
      <trkpt lat="43.59046" lon="6.89098">
        <ele>150.5836182</ele>
        <time>2011-01-05T14:48:32Z</time>
      </trkpt>
      <trkpt lat="43.59066" lon="6.89106">
        <ele>149.6223145</ele>
        <time>2011-01-05T14:49:00Z</time>
      </trkpt>
      <trkpt lat="43.59092" lon="6.89146">
        <ele>151.064209</ele>
        <time>2011-01-05T14:49:18Z</time>
      </trkpt>
      <trkpt lat="43.59135" lon="6.89231">
        <ele>142.4124756</ele>
        <time>2011-01-05T14:49:37Z</time>
      </trkpt>
      <trkpt lat="43.59278" lon="6.89278">
        <ele>131.8378906</ele>
        <time>2011-01-05T14:50:17Z</time>
      </trkpt>
      <trkpt lat="43.59499" lon="6.89461">
        <ele>123.1861572</ele>
        <time>2011-01-05T14:52:12Z</time>
      </trkpt>
      <trkpt lat="43.59663" lon="6.89477">
        <ele>129.9152832</ele>
        <time>2011-01-05T14:53:17Z</time>
      </trkpt>
      <trkpt lat="43.59668" lon="6.89541">
        <ele>132.3186035</ele>
        <time>2011-01-05T14:53:38Z</time>
      </trkpt>
      <trkpt lat="43.59781" lon="6.89634">
        <ele>134.2412109</ele>
        <time>2011-01-05T14:54:23Z</time>
      </trkpt>
      <trkpt lat="43.59839" lon="6.89718">
        <ele>142.8930664</ele>
        <time>2011-01-05T14:54:58Z</time>
      </trkpt>
      <trkpt lat="43.59866" lon="6.89708">
        <ele>145.2963867</ele>
        <time>2011-01-05T14:55:11Z</time>
      </trkpt>
      <trkpt lat="43.59952" lon="6.89862">
        <ele>149.1416016</ele>
        <time>2011-01-05T14:56:07Z</time>
      </trkpt>
      <trkpt lat="43.59995" lon="6.8989">
        <ele>149.6223145</ele>
        <time>2011-01-05T14:56:22Z</time>
      </trkpt>
      <trkpt lat="43.60064" lon="6.89937">
        <ele>142.8930664</ele>
        <time>2011-01-05T14:56:34Z</time>
      </trkpt>
      <trkpt lat="43.60088" lon="6.89912">
        <ele>142.4124756</ele>
        <time>2011-01-05T14:56:40Z</time>
      </trkpt>
      <trkpt lat="43.601" lon="6.89711">
        <ele>130.876709</ele>
        <time>2011-01-05T14:57:01Z</time>
      </trkpt>
      <trkpt lat="43.60118" lon="6.89696">
        <ele>128.4733887</ele>
        <time>2011-01-05T14:57:07Z</time>
      </trkpt>
      <trkpt lat="43.60218" lon="6.89802">
        <ele>117.4182129</ele>
        <time>2011-01-05T14:57:22Z</time>
      </trkpt>
      <trkpt lat="43.60296" lon="6.89835">
        <ele>112.1309814</ele>
        <time>2011-01-05T14:57:32Z</time>
      </trkpt>
      <trkpt lat="43.60349" lon="6.89748">
        <ele>106.3630371</ele>
        <time>2011-01-05T14:57:43Z</time>
      </trkpt>
      <trkpt lat="43.6036" lon="6.89656">
        <ele>100.5950928</ele>
        <time>2011-01-05T14:57:55Z</time>
      </trkpt>
      <trkpt lat="43.60499" lon="6.89672">
        <ele>89.0593262</ele>
        <time>2011-01-05T14:58:16Z</time>
      </trkpt>
      <trkpt lat="43.60521" lon="6.89641">
        <ele>86.6560059</ele>
        <time>2011-01-05T14:58:20Z</time>
      </trkpt>
      <trkpt lat="43.60599" lon="6.8964">
        <ele>79.4460449</ele>
        <time>2011-01-05T14:58:31Z</time>
      </trkpt>
      <trkpt lat="43.60628" lon="6.89587">
        <ele>78.0040283</ele>
        <time>2011-01-05T14:58:38Z</time>
      </trkpt>
      <trkpt lat="43.60585" lon="6.897">
        <ele>68.871582</ele>
        <time>2011-01-05T14:58:57Z</time>
      </trkpt>
      <trkpt lat="43.60424" lon="6.8972">
        <ele>55.4130859</ele>
        <time>2011-01-05T14:59:23Z</time>
      </trkpt>
      <trkpt lat="43.60451" lon="6.89858">
        <ele>43.8773193</ele>
        <time>2011-01-05T14:59:43Z</time>
      </trkpt>
      <trkpt lat="43.60359" lon="6.90021">
        <ele>33.3028564</ele>
        <time>2011-01-05T15:00:04Z</time>
      </trkpt>
      <trkpt lat="43.60366" lon="6.90056">
        <ele>30.8995361</ele>
        <time>2011-01-05T15:00:09Z</time>
      </trkpt>
      <trkpt lat="43.60368" lon="6.90104">
        <ele>25.1317139</ele>
        <time>2011-01-05T15:00:16Z</time>
      </trkpt>
      <trkpt lat="43.60307" lon="6.90154">
        <ele>17.4411621</ele>
        <time>2011-01-05T15:00:26Z</time>
      </trkpt>
      <trkpt lat="43.60294" lon="6.9019">
        <ele>15.5184326</ele>
        <time>2011-01-05T15:00:32Z</time>
      </trkpt>
      <trkpt lat="43.6035" lon="6.90249">
        <ele>14.5570068</ele>
        <time>2011-01-05T15:00:44Z</time>
      </trkpt>
      <trkpt lat="43.60494" lon="6.90189">
        <ele>15.9990234</ele>
        <time>2011-01-05T15:01:08Z</time>
      </trkpt>
      <trkpt lat="43.60556" lon="6.90232">
        <ele>17.4411621</ele>
        <time>2011-01-05T15:01:21Z</time>
      </trkpt>
      <trkpt lat="43.60607" lon="6.90324">
        <ele>18.4023438</ele>
        <time>2011-01-05T15:01:37Z</time>
      </trkpt>
      <trkpt lat="43.60613" lon="6.90368">
        <ele>18.4023438</ele>
        <time>2011-01-05T15:01:44Z</time>
      </trkpt>
      <trkpt lat="43.60434" lon="6.90795">
        <ele>37.6286621</ele>
        <time>2011-01-05T15:03:46Z</time>
      </trkpt>
      <trkpt lat="43.60412" lon="6.90891">
        <ele>38.5900879</ele>
        <time>2011-01-05T15:04:07Z</time>
      </trkpt>
      <trkpt lat="43.60405" lon="6.90951">
        <ele>34.2641602</ele>
        <time>2011-01-05T15:04:21Z</time>
      </trkpt>
    </trkseg>
  </trk>
</gpx>